Impacts TAF Board
For situational awareness. Not to be used for flight planning purposes.
IDs:

KSEA - Seattle-Tacoma Intl, WA, US

Issued at 1721 UTC 22 Sep 2020
Updated at 2042 UTC 22 Sep 2020
Potential Impact None Slight Moderate High
Time1953Z 22/21Z 22/22Z 22/23Z 23/00Z 23/01Z 23/02Z 23/03Z 23/04Z 23/05Z 23/06Z 23/07Z 23/08Z 23/09Z>>
Type OBS PRVL PRVL PRVL PRVL PRVL PRVL PRVL PRVL PRVL PRVL PRVL PRVL PRVL
VIS 10 >6 >6 >6 >6 >6 >6 >6 >6 >6 >6 >6 >6 >6
CIG -- 30 120 120 120 120 120 120 120 120 120 120 90 90
Cover SCT BKN BKN BKN BKN BKN BKN BKN BKN BKN BKN BKN OVC OVC
FltCat VFR MVFR VFR VFR VFR VFR VFR VFR VFR VFR VFR VFR VFR VFR
WX -- -- -- -- -- -- -- -- -- -- -- -- -- --
WDir 220 230 230 230 230 230 230 230 230 230 230 230 180 180
WSpd 9 6 6 6 6 6 6 6 6 6 6 6 8 8
WGst -- -- -- -- -- -- -- -- -- -- -- -- -- --
Raw TAF
KSEA 221721Z 2218/2324 22010KT P6SM FEW007 BKN035
  FM221900 23006KT P6SM SCT005 BKN030
  FM222200 23006KT P6SM SCT050 BKN120
  FM230800 18008KT P6SM OVC090
  FM231100 15008KT P6SM -RA OVC040
  FM231600 15009KT 5SM -RA OVC010


Raw METAR
KSEA 221953Z 22009KT 10SM FEW015 FEW025 SCT250 20/08 A3002 RMK AO2 SLP171 T02000083
KSEA 221853Z 20008KT 10SM FEW009 FEW020 FEW250 19/10 A3004 RMK AO2 SLP177 T01890100
KSEA 221753Z 23008KT 10SM FEW009 FEW020 FEW250 18/12 A3004 RMK AO2 SLP178 60000 T01780117 10178 20150

METAR Board
Radar Display
Forecast Discussion
For situational awareness. Not to be used for flight planning purposes.